Estación Meteorológica Peña el Pijo (Robertgarden) [ 12/11/18 09:27:14 CET ]

Fecha Hora Presion(HPa) Temp (°C) Humedad % Rocio (°C) Viento ( m/s) Direccion Lluvia 1Hora(mm) Lluvia 24H(mm) LLuvia Total(mm)
2018-Apr-01 01:01:41 1009.200 2.6 77 -1.0       0.51 185.44
2018-Apr-01 02:01:56 1008.700 1.9 78 -1.6       0.51 185.44
2018-Apr-01 03:01:42 1008.400 2.0 79 -1.3         185.44
2018-Apr-01 04:02:12 1008.200 2.4 78 -1.1         185.44
2018-Apr-01 05:02:08 1007.600 2.2 74 -2.0         185.44
2018-Apr-01 06:08:22 1007.400 0.1 77 -3.4         185.44
2018-Apr-01 07:01:55 1007.700 -0.6 79 -3.8         185.44
2018-Apr-01 08:01:58 1007.900 -1.1 81 -3.9         185.44
2018-Apr-01 09:01:52 1008.200 1.0 83 -1.6         185.44
2018-Apr-01 10:02:07 1008.300 5.0 74 0.7         185.44
2018-Apr-01 11:01:57 1007.900 9.5 59 1.9         185.44
2018-Apr-01 12:01:46 1007.700 14.4 45 2.6         185.44
2018-Apr-01 13:01:41 1007.200 17.5 36 2.1         185.44
2018-Apr-01 14:01:38 1006.500 16.5 36 1.2 2.2 SE     185.44
2018-Apr-01 15:01:44 1005.900 19.1 34 2.8         185.44
2018-Apr-01 16:01:42 1004.900 19.8 31 2.1         185.44
2018-Apr-01 17:01:41 1004.400 18.9 31 1.4         185.44
2018-Apr-01 18:01:39 1003.800 16.9 33 0.4         185.44
2018-Apr-01 19:01:49 1003.300 15.3 34 -0.6         185.44
2018-Apr-01 20:01:42 1003.400 13.2 37 -1.3         185.44
2018-Apr-01 21:01:49 1003.500 10.5 42 -1.9         185.44
2018-Apr-01 22:01:43 1003.500 8.2 50 -1.6         185.44
2018-Apr-01 23:01:49 1003.900 6.2 57 -1.7         185.44

Temperatura Máxima:19°    Temperatura Mínima:-1°
Presión Máxima:1009.200 Hpa    Presión Mínima:1003.300 Hpa


Volver